クグルクトゥク の空港の天気 - METARとTAF

Coppermine ( CYCO / YCO ) - カナダ ヌナブト準州Kugluktuk
飛行場実況気象(Metar)
観測時間08/14 13:00 MDT (08/14 19:00 UTC)
風向・風速北北東 5m/s
視程10km以上
天気現象
全天を覆う雲 雲底高度 370m
気温10℃
湿度82%
気圧1013.7hPa
METARCYCO 141900Z 02010KT 15SM OVC012 10/07 A2993 RMK SC8 SLP137
過去の天気等 Google飛行場航空写真 Wunderground天気予報

過去48時間のMETAR

飛行場予報(TAF)
発表時間: 8/14 12:38 MDT (8/14 18:38 UTC)
予報対象時間: 14日13時 MDT ~ 15日1時 MDT
風向・風速北東 6m/s
視程10km以上
全天の8割程度の雲 雲底高度 300m
全天の8割程度の雲 雲底高度 3050m
14日13時 MDT ~ 15日1時 MDT に一時的に
全天の4割程度の雲 雲底高度 460m
全天の8割程度の雲 雲底高度 3050m
TAF CYCO 141838Z 1419/1507 04012KT P6SM BKN010 BKN100
TEMPO 1419/1507 SCT015 BKN100 RMK NXT FCST BY 150100Z